createdAt,value
2016-10-05T00:03:13.952Z,0
2016-10-05T00:04:28.438Z,0
2016-10-05T00:05:31.234Z,0
2016-10-05T00:07:03.170Z,0
2016-10-05T00:30:06.343Z,0
2016-10-05T00:31:22.776Z,0
2016-10-05T00:56:04.253Z,0
2016-10-05T00:56:44.783Z,0
2016-10-05T00:57:25.299Z,0
2016-10-05T00:58:05.823Z,0
2016-10-05T00:58:46.341Z,0
2016-10-05T00:59:26.861Z,0
2016-10-05T01:00:07.359Z,0
2016-10-05T01:00:47.906Z,0
2016-10-05T01:01:28.413Z,0
2016-10-05T01:02:08.882Z,0
2016-10-05T01:02:49.413Z,0
2016-10-05T01:03:31.388Z,0
2016-10-05T01:04:11.938Z,0
2016-10-05T01:04:52.492Z,0
2016-10-05T01:05:33.038Z,0
2016-10-05T01:06:13.566Z,0
2016-10-05T01:06:54.088Z,0
2016-10-05T01:07:34.621Z,0
2016-10-05T01:08:15.157Z,0
2016-10-05T01:08:55.690Z,0
2016-10-05T01:09:36.232Z,0
2016-10-05T01:10:16.743Z,0
2016-10-05T01:10:57.267Z,0
2016-10-05T01:11:37.786Z,0
2016-10-05T01:12:18.318Z,0
2016-10-05T01:12:58.849Z,0
2016-10-05T01:13:39.361Z,0
2016-10-05T01:14:19.910Z,0
2016-10-05T01:15:00.404Z,0
2016-10-05T01:15:40.922Z,0
2016-10-05T01:16:21.455Z,0
2016-10-05T01:17:01.976Z,0
2016-10-05T01:17:42.460Z,0
2016-10-05T01:18:23.001Z,0
2016-10-05T01:19:03.538Z,0
2016-10-05T01:19:44.011Z,0
2016-10-05T01:20:24.536Z,0
2016-10-05T01:21:05.022Z,0
2016-10-05T01:21:45.585Z,0
2016-10-05T01:22:26.113Z,0
2016-10-05T01:23:06.638Z,0
2016-10-05T01:23:47.194Z,0
2016-10-05T01:24:27.715Z,0
2016-10-05T01:25:08.245Z,0
2016-10-05T01:25:48.782Z,0
2016-10-05T01:26:29.333Z,0
2016-10-05T01:27:09.874Z,0
2016-10-05T01:27:50.431Z,0
2016-10-05T01:28:30.932Z,0
2016-10-05T01:29:11.438Z,0
2016-10-05T01:29:51.974Z,0
2016-10-05T01:30:32.502Z,0
2016-10-05T01:31:12.996Z,0
2016-10-05T01:31:53.537Z,0
2016-10-05T01:32:34.085Z,0
2016-10-05T01:33:14.632Z,0
2016-10-05T01:33:55.147Z,0
2016-10-05T01:34:35.665Z,0
2016-10-05T01:35:16.167Z,0
2016-10-05T01:35:56.720Z,0
2016-10-05T01:36:37.223Z,0
2016-10-05T01:37:17.760Z,0
2016-10-05T01:37:58.299Z,0
2016-10-05T01:38:38.826Z,0
2016-10-05T01:39:19.342Z,0
2016-10-05T01:39:59.864Z,0
2016-10-05T01:40:40.395Z,0
2016-10-05T01:41:20.929Z,0
2016-10-05T01:42:01.450Z,0
2016-10-05T01:42:41.955Z,0
2016-10-05T01:43:22.475Z,0
2016-10-05T01:44:02.999Z,0
2016-10-05T01:44:43.518Z,0
2016-10-05T01:45:24.039Z,0
2016-10-05T01:46:04.557Z,0
2016-10-05T01:46:45.063Z,0
2016-10-05T01:47:25.567Z,0
2016-10-05T01:48:06.103Z,0
2016-10-05T01:48:46.650Z,0
2016-10-05T01:49:27.175Z,0
2016-10-05T01:50:07.707Z,0
2016-10-05T01:50:48.231Z,0
2016-10-05T01:51:28.754Z,0
2016-10-05T01:52:09.263Z,0
2016-10-05T01:52:49.799Z,0
2016-10-05T01:53:30.342Z,0
2016-10-05T01:54:10.867Z,0
2016-10-05T01:54:51.403Z,0
2016-10-05T01:55:31.957Z,0
2016-10-05T01:56:12.492Z,0
2016-10-05T01:56:53.018Z,0
2016-10-05T01:57:33.562Z,0
2016-10-05T01:58:14.095Z,0
2016-10-05T01:58:54.608Z,0
2016-10-05T01:59:35.157Z,0
2016-10-05T02:00:15.693Z,0
2016-10-05T02:00:56.209Z,0
2016-10-05T02:01:36.747Z,0
2016-10-05T02:02:17.275Z,0
2016-10-05T02:02:57.806Z,0
2016-10-05T02:03:38.329Z,0
2016-10-05T02:04:18.832Z,0
2016-10-05T02:04:59.375Z,0
2016-10-05T02:05:39.878Z,0
2016-10-05T02:06:20.424Z,0
2016-10-05T02:07:00.959Z,0
2016-10-05T02:07:41.475Z,0
2016-10-05T02:08:21.970Z,0
2016-10-05T02:09:02.483Z,0
2016-10-05T02:09:42.970Z,0
2016-10-05T02:10:23.495Z,0
2016-10-05T02:11:04.010Z,0
2016-10-05T02:11:44.507Z,0
2016-10-05T02:12:25.044Z,0
2016-10-05T02:13:05.559Z,0
2016-10-05T02:13:46.070Z,0
2016-10-05T02:14:26.588Z,0
2016-10-05T02:15:07.125Z,0
2016-10-05T02:15:47.610Z,0
2016-10-05T02:16:28.123Z,0
2016-10-05T02:17:08.620Z,0
2016-10-05T02:17:49.157Z,0
2016-10-05T02:18:29.703Z,0
2016-10-05T02:19:10.242Z,0
2016-10-05T02:19:50.764Z,0
2016-10-05T02:20:31.301Z,0
2016-10-05T02:21:11.821Z,0
2016-10-05T02:21:52.358Z,0
2016-10-05T02:22:32.908Z,0
2016-10-05T02:23:13.458Z,0
2016-10-05T02:23:53.993Z,0
2016-10-05T02:24:34.516Z,0
2016-10-05T02:25:15.056Z,0
2016-10-05T02:25:55.613Z,0
2016-10-05T02:26:36.136Z,0
2016-10-05T02:27:16.705Z,0
2016-10-05T02:27:57.264Z,0
2016-10-05T02:28:37.789Z,0
2016-10-05T02:29:18.315Z,0
2016-10-05T02:29:58.850Z,0
2016-10-05T02:30:39.394Z,0
2016-10-05T02:31:19.920Z,0
2016-10-05T02:32:00.469Z,0
2016-10-05T02:32:41.011Z,0
2016-10-05T02:33:21.566Z,0
2016-10-05T02:34:02.059Z,0
2016-10-05T02:34:42.573Z,0
2016-10-05T02:35:23.080Z,0
2016-10-05T02:36:03.613Z,0
2016-10-05T02:36:44.161Z,0
2016-10-05T02:37:24.675Z,0
2016-10-05T02:38:05.200Z,0
2016-10-05T02:38:45.736Z,0
2016-10-05T02:39:26.271Z,0
2016-10-05T02:40:06.823Z,0
2016-10-05T02:40:47.357Z,0
2016-10-05T02:41:27.891Z,0
2016-10-05T02:42:08.394Z,0
2016-10-05T02:42:48.924Z,0
2016-10-05T02:43:29.421Z,0
2016-10-05T02:44:09.920Z,0
2016-10-05T02:44:50.461Z,0
2016-10-05T02:45:30.942Z,0
2016-10-05T02:46:11.462Z,0
2016-10-05T02:46:51.974Z,0
2016-10-05T02:47:32.491Z,0
2016-10-05T02:48:12.985Z,0
2016-10-05T02:48:53.540Z,0
2016-10-05T02:49:34.031Z,0
2016-10-05T02:50:14.561Z,0
2016-10-05T02:50:55.085Z,0
2016-10-05T02:51:35.591Z,0
2016-10-05T02:52:16.099Z,0
2016-10-05T02:52:56.647Z,0
2016-10-05T02:53:37.122Z,0
2016-10-05T02:54:17.636Z,0
2016-10-05T02:54:58.157Z,0
2016-10-05T02:55:38.648Z,0
2016-10-05T02:56:19.208Z,0
2016-10-05T02:56:59.716Z,0
2016-10-05T02:57:40.236Z,0
2016-10-05T02:58:20.773Z,0
2016-10-05T02:59:01.313Z,0
2016-10-05T02:59:41.831Z,0
2016-10-05T03:00:22.337Z,0
2016-10-05T03:01:02.873Z,0
2016-10-05T03:01:43.416Z,0
2016-10-05T03:02:23.930Z,0
2016-10-05T03:03:04.470Z,0
2016-10-05T03:03:44.989Z,0
2016-10-05T03:04:25.522Z,0
2016-10-05T03:05:06.079Z,0
2016-10-05T03:05:46.612Z,0
2016-10-05T03:06:27.130Z,0
2016-10-05T03:07:07.621Z,0
2016-10-05T03:07:48.149Z,0
2016-10-05T03:08:28.658Z,0
2016-10-05T03:09:09.178Z,0
2016-10-05T03:09:49.685Z,0
2016-10-05T03:10:30.186Z,0
2016-10-05T03:11:10.697Z,0
2016-10-05T03:11:51.229Z,0
2016-10-05T03:12:31.745Z,0
2016-10-05T03:13:12.220Z,0
2016-10-05T03:13:52.712Z,0
2016-10-05T03:14:33.218Z,0
2016-10-05T03:15:13.722Z,0
2016-10-05T03:15:54.231Z,0
2016-10-05T03:16:34.745Z,0
2016-10-05T03:17:15.257Z,0
2016-10-05T03:17:55.773Z,0
2016-10-05T03:18:36.270Z,0
2016-10-05T03:19:16.817Z,0
2016-10-05T03:19:57.346Z,0
2016-10-05T03:20:37.876Z,0
2016-10-05T03:21:18.382Z,0
2016-10-05T03:21:58.907Z,0
2016-10-05T03:22:39.431Z,0
2016-10-05T03:23:19.988Z,0
2016-10-05T03:24:00.533Z,0
2016-10-05T03:24:41.078Z,0
2016-10-05T03:25:21.586Z,0
2016-10-05T03:26:02.085Z,0
2016-10-05T03:26:42.645Z,0
2016-10-05T03:27:23.163Z,0
2016-10-05T03:28:03.691Z,0
2016-10-05T03:28:44.217Z,0
2016-10-05T03:29:24.747Z,0
2016-10-05T03:30:05.300Z,0
2016-10-05T03:30:45.838Z,0
2016-10-05T03:31:26.368Z,0
2016-10-05T03:32:06.893Z,0
2016-10-05T03:32:47.389Z,0
2016-10-05T03:33:27.867Z,0
2016-10-05T03:34:08.373Z,0
2016-10-05T03:34:48.875Z,0
2016-10-05T03:35:29.386Z,0
2016-10-05T03:36:09.893Z,0
2016-10-05T03:36:50.423Z,0
2016-10-05T03:37:30.924Z,0
2016-10-05T03:38:11.388Z,0
2016-10-05T03:38:51.972Z,0
2016-10-05T03:39:32.449Z,0
2016-10-05T03:40:12.944Z,0
2016-10-05T03:40:53.487Z,0
2016-10-05T03:41:33.964Z,0
2016-10-05T03:42:14.521Z,0
2016-10-05T03:42:55.038Z,0
2016-10-05T03:43:35.517Z,0
2016-10-05T03:44:16.032Z,0
2016-10-05T03:44:56.541Z,0
2016-10-05T03:45:37.078Z,0
2016-10-05T03:46:17.615Z,0
2016-10-05T03:46:58.168Z,0
2016-10-05T03:47:38.648Z,0
2016-10-05T03:48:19.139Z,0
2016-10-05T03:48:59.682Z,0
2016-10-05T03:49:40.210Z,0
2016-10-05T03:50:20.742Z,0
2016-10-05T03:51:01.263Z,0
2016-10-05T03:51:41.789Z,0
2016-10-05T03:52:22.334Z,0
2016-10-05T03:53:02.880Z,0
2016-10-05T03:53:43.430Z,0
2016-10-05T03:54:23.963Z,0
2016-10-05T03:55:04.500Z,0
2016-10-05T03:55:45.033Z,0
2016-10-05T03:56:25.581Z,0
2016-10-05T03:57:06.174Z,0
2016-10-05T03:57:46.669Z,0
2016-10-05T03:58:27.243Z,0
2016-10-05T03:59:07.784Z,0
2016-10-05T03:59:48.416Z,0
2016-10-05T04:00:29.268Z,0
2016-10-05T04:01:09.853Z,0
2016-10-05T04:01:50.347Z,0
2016-10-05T04:02:30.843Z,0
2016-10-05T04:03:11.356Z,0
2016-10-05T04:03:51.893Z,0
2016-10-05T04:04:32.400Z,0
2016-10-05T04:05:12.871Z,0
2016-10-05T04:05:53.377Z,0
2016-10-05T04:06:33.893Z,0
2016-10-05T04:07:14.388Z,0
2016-10-05T04:07:54.862Z,0
2016-10-05T04:08:35.372Z,0
2016-10-05T04:09:15.902Z,0
2016-10-05T04:09:56.419Z,0
2016-10-05T04:10:36.968Z,0
2016-10-05T04:11:17.502Z,0
2016-10-05T04:11:58.038Z,0
2016-10-05T04:12:38.505Z,0
2016-10-05T04:13:19.033Z,0
2016-10-05T04:13:59.555Z,0
2016-10-05T04:14:40.041Z,0
2016-10-05T04:15:20.537Z,0
2016-10-05T04:16:01.079Z,0
2016-10-05T04:16:41.605Z,0
2016-10-05T04:17:22.147Z,0
2016-10-05T04:18:02.670Z,0
2016-10-05T04:18:43.181Z,0
2016-10-05T04:19:23.706Z,0
2016-10-05T04:20:04.210Z,0
2016-10-05T04:20:44.758Z,0
2016-10-05T04:21:25.279Z,0
2016-10-05T04:22:05.812Z,0
2016-10-05T04:22:46.348Z,0
2016-10-05T04:23:26.889Z,0
2016-10-05T04:24:07.474Z,0
2016-10-05T04:24:48.001Z,0
2016-10-05T04:25:28.563Z,0
2016-10-05T04:26:09.102Z,0
2016-10-05T04:26:49.652Z,0
2016-10-05T04:27:30.193Z,0
2016-10-05T04:28:10.716Z,0
2016-10-05T04:28:51.256Z,0
2016-10-05T04:29:31.757Z,0
2016-10-05T04:30:12.271Z,0
2016-10-05T04:30:52.817Z,0
2016-10-05T04:31:33.321Z,0
2016-10-05T04:32:13.859Z,0
2016-10-05T04:32:54.397Z,0
2016-10-05T04:33:34.915Z,0
2016-10-05T04:34:15.429Z,0
2016-10-05T04:34:55.950Z,0
2016-10-05T04:35:36.509Z,0
2016-10-05T04:36:17.000Z,0
2016-10-05T04:36:57.509Z,0
2016-10-05T04:37:38.052Z,0
2016-10-05T04:38:18.568Z,0
2016-10-05T04:38:59.119Z,0
2016-10-05T04:39:39.657Z,0
2016-10-05T04:40:20.168Z,0
2016-10-05T04:41:00.678Z,0
2016-10-05T04:41:41.189Z,0
2016-10-05T04:42:21.724Z,0
2016-10-05T04:43:02.260Z,0
2016-10-05T04:43:42.802Z,0
2016-10-05T04:44:23.327Z,0
2016-10-05T04:45:03.867Z,0
2016-10-05T04:45:44.404Z,0
2016-10-05T04:46:24.928Z,0
2016-10-05T04:47:05.461Z,0
2016-10-05T04:47:45.986Z,0
2016-10-05T04:48:26.520Z,0
2016-10-05T04:49:07.066Z,0
2016-10-05T04:49:47.596Z,0
2016-10-05T04:50:28.126Z,0
2016-10-05T04:51:08.660Z,0
2016-10-05T04:51:49.204Z,0
2016-10-05T04:52:29.738Z,0
2016-10-05T04:53:10.273Z,0
2016-10-05T04:53:50.802Z,0
2016-10-05T04:54:31.326Z,0
2016-10-05T04:55:11.860Z,0
2016-10-05T04:55:52.391Z,0
2016-10-05T04:56:33.000Z,0
2016-10-05T04:57:13.534Z,0
2016-10-05T04:57:54.072Z,0
2016-10-05T04:58:34.606Z,0
2016-10-05T04:59:15.122Z,0
2016-10-05T04:59:55.638Z,0
2016-10-05T05:00:36.161Z,0
2016-10-05T05:01:16.674Z,0
2016-10-05T05:01:57.201Z,0
2016-10-05T05:02:37.730Z,0
2016-10-05T05:03:18.256Z,0
2016-10-05T05:03:58.791Z,0
2016-10-05T05:04:39.329Z,0
2016-10-05T05:05:19.893Z,0
2016-10-05T05:06:00.448Z,0
2016-10-05T05:06:40.993Z,0
2016-10-05T05:07:21.526Z,0
2016-10-05T05:08:02.076Z,0
2016-10-05T05:08:42.590Z,0
2016-10-05T05:09:23.129Z,0
2016-10-05T05:10:03.685Z,4
2016-10-05T05:10:44.196Z,4
2016-10-05T05:11:24.733Z,0
2016-10-05T05:12:05.244Z,4
2016-10-05T05:12:45.782Z,4
2016-10-05T05:13:26.324Z,0
2016-10-05T05:14:06.868Z,4
2016-10-05T05:14:47.435Z,4
2016-10-05T05:15:27.990Z,4
2016-10-05T05:16:08.537Z,8
2016-10-05T05:16:49.242Z,8
2016-10-05T05:17:29.726Z,8
2016-10-05T05:18:10.241Z,8
2016-10-05T05:18:50.785Z,8
2016-10-05T05:19:31.319Z,12
2016-10-05T05:20:11.830Z,12
2016-10-05T05:20:52.362Z,12
2016-10-05T05:21:32.920Z,16
2016-10-05T05:22:13.452Z,16
2016-10-05T05:22:53.992Z,20
2016-10-05T05:23:34.528Z,20
2016-10-05T05:24:15.040Z,24
2016-10-05T05:24:55.546Z,28
2016-10-05T05:25:36.086Z,32
2016-10-05T05:26:16.604Z,36
2016-10-05T05:26:57.156Z,40
2016-10-05T05:27:37.690Z,44
2016-10-05T05:28:18.305Z,48
2016-10-05T05:28:58.818Z,52
2016-10-05T05:29:39.332Z,56
2016-10-05T05:30:19.858Z,60
2016-10-05T05:31:00.452Z,64
2016-10-05T05:31:40.962Z,72
2016-10-05T05:32:21.519Z,80
2016-10-05T05:33:02.058Z,88
2016-10-05T05:33:42.612Z,96
2016-10-05T05:34:23.137Z,100
2016-10-05T05:35:03.651Z,108
2016-10-05T05:35:44.167Z,116
2016-10-05T05:36:24.690Z,128
2016-10-05T05:37:05.217Z,132
2016-10-05T05:37:45.750Z,144
2016-10-05T05:38:26.288Z,152
2016-10-05T05:39:06.806Z,160
2016-10-05T05:39:47.332Z,172
2016-10-05T05:40:27.860Z,184
2016-10-05T05:41:08.391Z,196
2016-10-05T05:41:48.907Z,208
2016-10-05T05:42:29.432Z,220
2016-10-05T05:43:10.358Z,232
2016-10-05T05:43:50.915Z,240
2016-10-05T05:44:31.627Z,256
2016-10-05T05:45:12.150Z,268
2016-10-05T05:45:54.739Z,284
2016-10-05T05:46:35.276Z,296
2016-10-05T05:47:15.813Z,308
2016-10-05T05:47:56.614Z,324
2016-10-05T05:48:37.214Z,340
2016-10-05T05:49:17.736Z,352
2016-10-05T05:49:58.771Z,368
2016-10-05T05:50:39.284Z,380
2016-10-05T05:51:19.828Z,396
2016-10-05T05:52:00.362Z,412
2016-10-05T05:52:40.896Z,428
2016-10-05T05:53:21.433Z,444
2016-10-05T05:54:01.951Z,456
2016-10-05T05:54:42.485Z,472
2016-10-05T05:55:23.037Z,488
2016-10-05T05:56:03.584Z,504
2016-10-05T05:56:44.110Z,516
2016-10-05T05:57:24.663Z,532
2016-10-05T05:58:05.212Z,548
2016-10-05T05:58:45.740Z,560
2016-10-05T05:59:26.283Z,576
2016-10-05T06:00:06.809Z,592
2016-10-05T06:00:47.348Z,604
2016-10-05T06:01:27.897Z,624
2016-10-05T06:02:08.438Z,640
2016-10-05T06:02:48.957Z,656
2016-10-05T06:03:29.495Z,668
2016-10-05T06:04:10.000Z,684
2016-10-05T06:04:50.539Z,700
2016-10-05T06:05:31.073Z,712
2016-10-05T06:06:11.606Z,728
2016-10-05T06:06:52.119Z,740
2016-10-05T06:07:32.651Z,756
2016-10-05T06:08:13.191Z,772
2016-10-05T06:08:53.706Z,784
2016-10-05T06:09:34.241Z,800
2016-10-05T06:10:14.767Z,812
2016-10-05T06:10:55.291Z,828
2016-10-05T06:11:35.807Z,840
2016-10-05T06:12:16.336Z,856
2016-10-05T06:12:56.862Z,868
2016-10-05T06:13:37.398Z,880
2016-10-05T06:14:17.956Z,896
2016-10-05T06:14:58.497Z,908
2016-10-05T06:15:39.049Z,920
2016-10-05T06:16:19.596Z,936
2016-10-05T06:17:00.132Z,948
2016-10-05T06:17:40.657Z,960
2016-10-05T06:18:21.186Z,976
2016-10-05T06:19:01.718Z,988
2016-10-05T06:19:42.256Z,1000
2016-10-05T06:20:22.811Z,1008
2016-10-05T06:21:03.332Z,1024
2016-10-05T06:21:43.890Z,1036
2016-10-05T06:22:24.416Z,1044
2016-10-05T06:23:04.975Z,1056
2016-10-05T06:23:45.578Z,1068
2016-10-05T06:24:26.049Z,1080
2016-10-05T06:25:06.578Z,1092
2016-10-05T06:25:47.102Z,1100
2016-10-05T06:26:27.623Z,1112
2016-10-05T06:27:08.141Z,1120
2016-10-05T06:27:48.670Z,1132
2016-10-05T06:28:29.209Z,1144
2016-10-05T06:29:09.705Z,1152
2016-10-05T06:29:50.219Z,1164
2016-10-05T06:30:30.754Z,1172
2016-10-05T06:31:11.309Z,1184
2016-10-05T06:31:51.842Z,1192
2016-10-05T06:32:32.366Z,1204
2016-10-05T06:33:12.870Z,1212
2016-10-05T06:33:53.412Z,1220
2016-10-05T06:34:33.958Z,1232
2016-10-05T06:35:14.482Z,1240
2016-10-05T06:35:55.009Z,1256
2016-10-05T06:36:35.519Z,1264
2016-10-05T06:37:16.037Z,1276
2016-10-05T06:37:56.574Z,1288
2016-10-05T06:38:37.104Z,1296
2016-10-05T06:39:17.621Z,1304
2016-10-05T06:39:58.167Z,1312
2016-10-05T06:40:38.691Z,1320
2016-10-05T06:41:19.193Z,1328
2016-10-05T06:41:59.711Z,1340
2016-10-05T06:42:40.225Z,1344
2016-10-05T06:43:20.775Z,1360
2016-10-05T06:44:01.331Z,1364
2016-10-05T06:44:41.916Z,1372
2016-10-05T06:45:22.444Z,1380
2016-10-05T06:46:02.983Z,1392
2016-10-05T06:46:43.515Z,1400
2016-10-05T06:47:24.048Z,1408
2016-10-05T06:48:04.589Z,1416
2016-10-05T06:48:45.128Z,1424
2016-10-05T06:49:25.679Z,1432
2016-10-05T06:50:06.206Z,1444
2016-10-05T06:50:46.727Z,1452
2016-10-05T06:51:27.250Z,1460
2016-10-05T06:52:07.768Z,1468
2016-10-05T06:52:48.285Z,1480
2016-10-05T06:53:28.788Z,1484
2016-10-05T06:54:09.318Z,1492
2016-10-05T06:54:49.996Z,1504
2016-10-05T06:55:30.396Z,1508
2016-10-05T06:56:10.929Z,1516
2016-10-05T06:56:51.451Z,1524
2016-10-05T06:57:31.972Z,1532
2016-10-05T06:58:12.521Z,1540
2016-10-05T06:58:53.041Z,1548
2016-10-05T06:59:33.551Z,1560
2016-10-05T07:00:14.079Z,1568
2016-10-05T07:00:54.630Z,1580
2016-10-05T07:01:35.167Z,1588
2016-10-05T07:02:15.689Z,1600
2016-10-05T07:02:56.237Z,1604
2016-10-05T07:03:36.741Z,1616
2016-10-05T07:04:17.262Z,1620
2016-10-05T07:04:57.821Z,1624
2016-10-05T07:05:38.345Z,1632
2016-10-05T07:06:18.913Z,1640
2016-10-05T07:06:59.417Z,1652
2016-10-05T07:07:39.928Z,1656
2016-10-05T07:08:20.461Z,1664
2016-10-05T07:09:00.960Z,1672
2016-10-05T07:09:41.489Z,1676
2016-10-05T07:10:22.027Z,1684
2016-10-05T07:11:02.583Z,1696
2016-10-05T07:11:43.094Z,1700
2016-10-05T07:12:23.628Z,1712
2016-10-05T07:13:04.140Z,1720
2016-10-05T07:13:44.677Z,1736
2016-10-05T07:14:25.199Z,1748
2016-10-05T07:15:05.748Z,1760
2016-10-05T07:15:46.271Z,1768
2016-10-05T07:16:26.795Z,1776
2016-10-05T07:17:07.315Z,1780
2016-10-05T07:17:47.831Z,1792
2016-10-05T07:18:28.357Z,1796
2016-10-05T07:19:08.871Z,1804
2016-10-05T07:19:49.400Z,1812
2016-10-05T07:20:29.911Z,1812
2016-10-05T07:21:10.439Z,1820
2016-10-05T07:21:50.963Z,1824
2016-10-05T07:22:31.497Z,1820
2016-10-05T07:23:12.031Z,1832
2016-10-05T07:23:52.544Z,1840
2016-10-05T07:24:33.072Z,1844
2016-10-05T07:25:13.599Z,1848
2016-10-05T07:25:54.150Z,1856
2016-10-05T07:26:34.703Z,1864
2016-10-05T07:27:15.205Z,1868
2016-10-05T07:27:55.729Z,1876
2016-10-05T07:28:36.261Z,1884
2016-10-05T07:29:16.810Z,1892
2016-10-05T07:29:57.355Z,1896
2016-10-05T07:30:37.909Z,1908
2016-10-05T07:31:18.422Z,1920
2016-10-05T07:31:58.946Z,1928
2016-10-05T07:32:39.504Z,1940
2016-10-05T07:33:20.035Z,1956
2016-10-05T07:34:00.566Z,1964
2016-10-05T07:34:41.087Z,1972
2016-10-05T07:35:21.653Z,1980
2016-10-05T07:36:02.196Z,1992
2016-10-05T07:36:42.721Z,2004
2016-10-05T07:37:23.252Z,2016
2016-10-05T07:38:03.807Z,2024
2016-10-05T07:38:44.347Z,2040
2016-10-05T07:39:24.904Z,2044
2016-10-05T07:40:05.448Z,2056
2016-10-05T07:40:45.992Z,2060
2016-10-05T07:41:26.514Z,2068
2016-10-05T07:42:07.048Z,2080
2016-10-05T07:42:47.582Z,2088
2016-10-05T07:43:28.117Z,2100
2016-10-05T07:44:08.659Z,2104
2016-10-05T07:44:49.200Z,2120
2016-10-05T07:45:29.713Z,2132
2016-10-05T07:46:10.226Z,2140
2016-10-05T07:46:50.762Z,2152
2016-10-05T07:47:31.306Z,2164
2016-10-05T07:48:11.853Z,2168
2016-10-05T07:48:52.365Z,2184
2016-10-05T07:49:32.902Z,2196
2016-10-05T07:50:13.412Z,2208
2016-10-05T07:50:53.951Z,2236
2016-10-05T07:51:34.487Z,2280
2016-10-05T07:52:15.020Z,2336
2016-10-05T07:52:55.558Z,2376
2016-10-05T07:53:36.067Z,2392
2016-10-05T07:54:16.598Z,2376
2016-10-05T07:54:57.128Z,2340
2016-10-05T07:55:37.675Z,2312
2016-10-05T07:56:18.197Z,2308
2016-10-05T07:56:58.721Z,2312
2016-10-05T07:57:39.259Z,2320
2016-10-05T07:58:19.812Z,2324
2016-10-05T07:59:00.355Z,2320
2016-10-05T07:59:40.876Z,2324
2016-10-05T08:00:21.401Z,2336
2016-10-05T08:01:01.944Z,2344
2016-10-05T08:01:42.491Z,2356
2016-10-05T08:02:23.041Z,2372
2016-10-05T08:03:03.565Z,2388
2016-10-05T08:03:44.122Z,2396
2016-10-05T08:04:24.664Z,2412
2016-10-05T08:05:05.225Z,2420
2016-10-05T08:05:45.760Z,2428
2016-10-05T08:06:26.285Z,2432
2016-10-05T08:07:06.832Z,2444
2016-10-05T08:07:47.360Z,2452
2016-10-05T08:08:27.901Z,2468
2016-10-05T08:09:08.441Z,2480
2016-10-05T08:09:48.979Z,2504
2016-10-05T08:10:29.517Z,2536
2016-10-05T08:11:10.055Z,2572
2016-10-05T08:11:50.591Z,2584
2016-10-05T08:12:31.140Z,2608
2016-10-05T08:13:11.688Z,2632
2016-10-05T08:13:52.230Z,2632
2016-10-05T08:14:32.779Z,2616
2016-10-05T08:15:15.249Z,2604
2016-10-05T08:15:55.801Z,2612
2016-10-05T08:16:36.329Z,2616
2016-10-05T08:17:16.888Z,2608
2016-10-05T08:17:57.422Z,2600
2016-10-05T08:18:37.966Z,2612
2016-10-05T08:19:18.521Z,2636
2016-10-05T08:19:59.055Z,2656
2016-10-05T08:20:39.591Z,2668
2016-10-05T08:21:20.113Z,2668
2016-10-05T08:22:00.656Z,2680
2016-10-05T08:22:41.183Z,2704
2016-10-05T08:23:21.737Z,2796
2016-10-05T08:24:02.283Z,2756
2016-10-05T08:24:42.827Z,2776
2016-10-05T08:25:23.346Z,2808
2016-10-05T08:26:03.881Z,2836
2016-10-05T08:26:44.388Z,2884
2016-10-05T08:27:24.927Z,2952
2016-10-05T08:28:05.445Z,3052
2016-10-05T08:28:45.978Z,3208
2016-10-05T08:29:26.507Z,4692
2016-10-05T08:30:07.052Z,10624
2016-10-05T08:30:47.613Z,19808
2016-10-05T08:31:28.151Z,27008
2016-10-05T08:32:08.706Z,30592
2016-10-05T08:32:49.202Z,22624
2016-10-05T08:33:29.788Z,22400
2016-10-05T08:34:10.360Z,21920
2016-10-05T08:34:50.881Z,24800
2016-10-05T08:35:31.406Z,26336
2016-10-05T08:36:11.975Z,23872
2016-10-05T08:36:52.496Z,22432
2016-10-05T08:37:33.019Z,22784
2016-10-05T08:38:13.564Z,24320
2016-10-05T08:38:54.104Z,26112
2016-10-05T08:39:34.647Z,27680
2016-10-05T08:40:15.210Z,29856
2016-10-05T08:40:55.743Z,30592
2016-10-05T08:41:36.293Z,33088
2016-10-05T08:42:16.847Z,31104
2016-10-05T08:42:57.388Z,31328
2016-10-05T08:43:37.951Z,29312
2016-10-05T08:44:18.498Z,26432
2016-10-05T08:44:59.053Z,26112
2016-10-05T08:45:39.594Z,31904
2016-10-05T08:46:20.117Z,38176
2016-10-05T08:47:00.667Z,39712
2016-10-05T08:47:41.211Z,40064
2016-10-05T08:48:21.761Z,40160
2016-10-05T08:49:02.302Z,40512
2016-10-05T08:49:42.818Z,40576
2016-10-05T08:50:23.349Z,40448
2016-10-05T08:51:03.897Z,40256
2016-10-05T08:51:44.483Z,40448
2016-10-05T08:52:25.014Z,40128
2016-10-05T08:53:05.557Z,39936
2016-10-05T08:53:46.077Z,40704
2016-10-05T08:54:26.625Z,41024
2016-10-05T08:55:07.168Z,39904
2016-10-05T08:55:47.722Z,39776
2016-10-05T08:56:28.239Z,40800
2016-10-05T08:57:08.785Z,40832
2016-10-05T08:57:49.330Z,40128
2016-10-05T08:58:29.860Z,39840
2016-10-05T08:59:10.421Z,41056
2016-10-05T08:59:50.973Z,41440
2016-10-05T09:00:31.512Z,41280
2016-10-05T09:01:12.038Z,41280
2016-10-05T09:01:52.604Z,41472
2016-10-05T09:02:33.162Z,41760
2016-10-05T09:03:13.715Z,41888
2016-10-05T09:03:54.263Z,41984
2016-10-05T09:04:34.816Z,41728
2016-10-05T09:05:15.380Z,41536
2016-10-05T09:05:55.933Z,42624
2016-10-05T09:06:36.481Z,43040
2016-10-05T09:07:17.016Z,42752
2016-10-05T09:07:57.569Z,42912
2016-10-05T09:08:38.094Z,42944
2016-10-05T09:09:18.673Z,23264
2016-10-05T09:09:59.217Z,42784
2016-10-05T09:10:39.692Z,41920
2016-10-05T09:11:20.235Z,41568
2016-10-05T09:12:00.770Z,42368
2016-10-05T09:12:41.310Z,41792
2016-10-05T09:13:21.840Z,15200
2016-10-05T09:14:02.418Z,44064
2016-10-05T09:14:43.045Z,45248
2016-10-05T09:15:23.599Z,43424
2016-10-05T09:16:04.147Z,44160
2016-10-05T09:16:44.696Z,45088
2016-10-05T09:17:25.289Z,45184
2016-10-05T09:18:05.852Z,10104
2016-10-05T09:18:46.395Z,27008
2016-10-05T09:19:26.931Z,49216
2016-10-05T09:20:07.470Z,51520
2016-10-05T09:20:48.023Z,52448
2016-10-05T09:21:28.561Z,52704
2016-10-05T09:22:09.105Z,48576
2016-10-05T09:22:49.638Z,50528
2016-10-05T09:23:30.165Z,11116
2016-10-05T09:24:10.715Z,47552
2016-10-05T09:24:51.256Z,40128
2016-10-05T09:25:31.807Z,16480
2016-10-05T09:26:12.355Z,11036
2016-10-05T09:26:52.911Z,24832
2016-10-05T09:27:33.458Z,48160
2016-10-05T09:28:14.005Z,10328
2016-10-05T09:28:54.544Z,19072
2016-10-05T09:29:35.067Z,17248
2016-10-05T09:30:15.640Z,49216
2016-10-05T09:30:56.220Z,49184
2016-10-05T09:31:36.797Z,11472
2016-10-05T09:32:17.322Z,48256
2016-10-05T09:32:57.874Z,14536
2016-10-05T09:33:38.433Z,22016
2016-10-05T09:34:18.980Z,49088
2016-10-05T09:34:59.527Z,11804
2016-10-05T09:35:40.075Z,31968
2016-10-05T09:36:20.626Z,9956
2016-10-05T09:37:01.167Z,6404
2016-10-05T09:37:41.705Z,9232
2016-10-05T09:38:22.220Z,47040
2016-10-05T09:39:02.758Z,40832
2016-10-05T09:39:43.282Z,25568
2016-10-05T09:40:23.815Z,48896
2016-10-05T09:41:04.372Z,19200
2016-10-05T09:41:44.905Z,50336
2016-10-05T09:42:25.455Z,47648
2016-10-05T09:43:06.006Z,28288
2016-10-05T09:43:46.528Z,7976
2016-10-05T09:44:27.073Z,30656
2016-10-05T09:45:07.645Z,50656
2016-10-05T09:45:48.175Z,48128
2016-10-05T09:46:28.703Z,49920
2016-10-05T09:47:09.243Z,50176
2016-10-05T09:47:49.788Z,50848
2016-10-05T09:48:30.329Z,31200
2016-10-05T09:49:10.876Z,51808
2016-10-05T09:49:51.411Z,51264
2016-10-05T09:50:31.947Z,47520
2016-10-05T09:51:12.495Z,50496
2016-10-05T09:51:53.034Z,51008
2016-10-05T09:52:33.585Z,49792
2016-10-05T09:53:14.132Z,51200
2016-10-05T09:53:54.686Z,52704
2016-10-05T09:54:35.236Z,46464
2016-10-05T09:55:15.787Z,40032
2016-10-05T09:55:56.321Z,12932
2016-10-05T09:56:36.856Z,28704
2016-10-05T09:57:17.397Z,53632
2016-10-05T09:57:57.927Z,53248
2016-10-05T09:58:38.479Z,52608
2016-10-05T09:59:19.029Z,52736
2016-10-05T09:59:59.586Z,53632
2016-10-05T10:00:40.140Z,52992
2016-10-05T10:01:20.708Z,54080
2016-10-05T10:02:01.255Z,55648
2016-10-05T10:02:41.820Z,55968
2016-10-05T10:03:22.376Z,56000
2016-10-05T10:04:02.914Z,55904
2016-10-05T10:04:43.460Z,56448
2016-10-05T10:05:24.003Z,56416
2016-10-05T10:06:04.578Z,56768
2016-10-05T10:06:45.117Z,56544
2016-10-05T10:07:25.659Z,57600
2016-10-05T10:08:06.208Z,16284
2016-10-05T10:08:46.756Z,59552
2016-10-05T10:09:27.306Z,58336
2016-10-05T10:10:07.848Z,58560
2016-10-05T10:10:48.401Z,57280
2016-10-05T10:11:28.946Z,57760
2016-10-05T10:12:09.491Z,57984
2016-10-05T10:12:50.008Z,58208
2016-10-05T10:13:30.549Z,59712
2016-10-05T10:14:11.077Z,11084
2016-10-05T10:14:51.620Z,8492
2016-10-05T10:15:32.145Z,41312
2016-10-05T10:16:12.690Z,21728
2016-10-05T10:16:53.241Z,59424